createdAt,value
2023-06-24T00:01:57.699Z,7.10
2023-06-24T00:06:54.030Z,6.30
2023-06-24T00:09:22.132Z,6.70
2023-06-24T00:11:50.202Z,7.40
2023-06-24T00:14:18.570Z,7.70
2023-06-24T00:16:52.329Z,7.40
2023-06-24T00:19:22.135Z,7.60
2023-06-24T00:21:54.217Z,7.10
2023-06-24T00:24:27.204Z,7.50
2023-06-24T00:26:56.635Z,7.70
2023-06-24T00:29:24.749Z,7.60
2023-06-24T00:31:53.130Z,7.50
2023-06-24T00:34:21.685Z,7.60
2023-06-24T00:36:49.913Z,7.50
2023-06-24T00:39:18.129Z,7.60
2023-06-24T00:44:15.070Z,8.10
2023-06-24T00:46:43.297Z,8.10
2023-06-24T00:49:17.360Z,8.30
2023-06-24T00:51:52.377Z,8.00
2023-06-24T00:54:20.409Z,7.80
2023-06-24T00:56:49.131Z,7.60
2023-06-24T00:59:18.763Z,8.10
2023-06-24T01:01:47.797Z,7.50
2023-06-24T01:04:17.813Z,7.00
2023-06-24T01:06:46.045Z,7.40
2023-06-24T01:11:42.454Z,7.30
2023-06-24T01:14:10.683Z,7.40
2023-06-24T01:19:14.653Z,7.90
2023-06-24T01:22:22.199Z,9.00
2023-06-24T01:25:05.212Z,8.00
2023-06-24T01:28:21.171Z,8.10
2023-06-24T01:30:51.893Z,8.20
2023-06-24T01:33:45.210Z,7.30
2023-06-24T01:36:17.774Z,8.80
2023-06-24T01:38:53.380Z,7.80
2023-06-24T01:41:25.605Z,7.30
2023-06-24T01:43:55.042Z,7.30
2023-06-24T01:46:26.321Z,7.90
2023-06-24T01:48:59.410Z,8.10
2023-06-24T01:51:29.326Z,8.60
2023-06-24T01:54:06.216Z,8.20
2023-06-24T01:56:37.116Z,8.20
2023-06-24T01:59:07.179Z,8.30
2023-06-24T02:01:37.201Z,8.70
2023-06-24T02:04:09.512Z,9.30
2023-06-24T02:06:40.766Z,8.10
2023-06-24T02:09:10.262Z,8.80
2023-06-24T02:11:39.592Z,8.40
2023-06-24T02:14:09.912Z,8.80
2023-06-24T02:16:43.740Z,8.50
2023-06-24T02:19:12.962Z,8.90
2023-06-24T02:21:42.928Z,8.60
2023-06-24T02:24:12.563Z,8.00
2023-06-24T02:26:42.024Z,8.00
2023-06-24T02:29:13.819Z,7.60
2023-06-24T02:31:42.009Z,8.70
2023-06-24T02:36:39.065Z,8.80
2023-06-24T02:39:07.272Z,9.40
2023-06-24T02:44:03.520Z,8.90
2023-06-24T02:46:35.550Z,8.60
2023-06-24T02:49:04.871Z,7.30
2023-06-24T02:51:33.894Z,7.30
2023-06-24T02:54:04.312Z,7.30
2023-06-24T02:57:00.357Z,6.70
2023-06-24T02:59:40.504Z,7.50
2023-06-24T03:02:10.630Z,7.70
2023-06-24T03:04:40.783Z,8.50
2023-06-24T03:07:12.924Z,7.90
2023-06-24T03:09:42.320Z,7.60
2023-06-24T03:12:10.639Z,7.10
2023-06-24T03:14:42.674Z,8.10
2023-06-24T03:19:40.450Z,8.60
2023-06-24T03:22:08.529Z,7.80
2023-06-24T03:24:37.568Z,9.70
2023-06-24T03:27:05.882Z,7.80
2023-06-24T03:29:39.526Z,6.80
2023-06-24T03:32:13.859Z,7.70
2023-06-24T03:34:42.645Z,7.20
2023-06-24T03:37:12.007Z,7.80
2023-06-24T03:39:42.038Z,7.70
2023-06-24T03:42:10.662Z,7.40
2023-06-24T03:44:39.279Z,6.60
2023-06-24T03:47:07.703Z,7.40
2023-06-24T03:49:36.019Z,7.30
2023-06-24T03:52:05.240Z,7.40
2023-06-24T03:54:33.465Z,7.40
2023-06-24T03:59:29.902Z,7.40
2023-06-24T04:01:58.929Z,7.20
2023-06-24T04:04:27.445Z,6.60
2023-06-24T04:06:55.583Z,7.40
2023-06-24T04:11:55.120Z,7.00
2023-06-24T04:14:23.357Z,7.30
2023-06-24T04:19:19.978Z,6.30
2023-06-24T04:21:48.000Z,6.10
2023-06-24T04:24:16.731Z,6.30
2023-06-24T04:26:44.957Z,5.50
2023-06-24T04:29:13.165Z,5.30
2023-06-24T04:31:41.328Z,6.20
2023-06-24T04:34:09.614Z,6.40
2023-06-24T04:36:37.926Z,5.90
2023-06-24T04:41:34.062Z,5.70
2023-06-24T04:44:02.280Z,8.30
2023-06-24T04:46:30.716Z,7.20
2023-06-24T04:48:58.928Z,6.10
2023-06-24T04:51:27.442Z,5.80
2023-06-24T04:53:56.768Z,6.20
2023-06-24T04:56:26.010Z,6.40
2023-06-24T04:58:54.117Z,6.30
2023-06-24T05:03:51.478Z,6.50
2023-06-24T05:06:19.679Z,5.70
2023-06-24T05:08:48.001Z,5.90
2023-06-24T05:11:16.424Z,5.50
2023-06-24T05:13:44.542Z,6.20
2023-06-24T05:18:40.684Z,6.00
2023-06-24T05:23:36.929Z,5.80
2023-06-24T05:28:33.063Z,5.90
2023-06-24T05:33:29.204Z,6.00
2023-06-24T05:38:25.441Z,5.90
2023-06-24T05:43:21.680Z,5.50
2023-06-24T05:48:17.922Z,6.60
2023-06-24T05:50:46.144Z,5.90
2023-06-24T05:53:14.360Z,5.20
2023-06-24T05:55:42.480Z,5.40
2023-06-24T05:58:10.496Z,6.10
2023-06-24T06:03:06.918Z,6.40
2023-06-24T06:05:35.447Z,5.40
2023-06-24T06:08:04.188Z,7.10
2023-06-24T06:10:32.249Z,5.90
2023-06-24T06:15:28.543Z,6.10
2023-06-24T06:17:56.796Z,5.70
2023-06-24T06:20:25.086Z,5.90
2023-06-24T06:22:53.133Z,5.70
2023-06-24T06:27:49.253Z,5.30
2023-06-24T06:30:17.665Z,5.10
2023-06-24T06:32:45.821Z,5.50
2023-06-24T06:35:13.842Z,5.50
2023-06-24T06:40:10.761Z,5.90
2023-06-24T06:42:39.071Z,5.90
2023-06-24T06:45:07.796Z,5.60
2023-06-24T06:47:35.905Z,6.00
2023-06-24T06:52:32.562Z,5.20
2023-06-24T06:55:00.980Z,5.50
2023-06-24T06:57:29.598Z,5.60
2023-06-24T06:59:57.931Z,5.60
2023-06-24T07:02:26.182Z,5.40
2023-06-24T07:04:54.468Z,5.50
2023-06-24T07:07:22.722Z,5.60
2023-06-24T07:09:51.210Z,5.90
2023-06-24T07:12:19.423Z,5.30
2023-06-24T07:14:47.635Z,4.80
2023-06-24T07:17:15.865Z,5.40
2023-06-24T07:19:43.977Z,5.80
2023-06-24T07:22:12.226Z,5.20
2023-06-24T07:24:40.464Z,5.00
2023-06-24T07:27:08.842Z,5.00
2023-06-24T07:29:37.446Z,5.50
2023-06-24T07:32:06.181Z,5.30
2023-06-24T07:34:34.672Z,5.30
2023-06-24T07:37:11.507Z,5.30
2023-06-24T07:42:11.208Z,4.70
2023-06-24T07:44:40.833Z,5.20
2023-06-24T07:47:09.033Z,5.00
2023-06-24T07:49:37.578Z,4.50
2023-06-24T07:52:06.096Z,4.80
2023-06-24T07:54:35.430Z,4.60
2023-06-24T07:57:04.509Z,4.90
2023-06-24T07:59:32.661Z,4.30
2023-06-24T08:02:00.783Z,4.60
2023-06-24T08:06:57.648Z,4.60
2023-06-24T08:09:26.050Z,4.70
2023-06-24T08:11:54.171Z,4.70
2023-06-24T08:14:22.388Z,4.60
2023-06-24T08:16:50.517Z,4.20
2023-06-24T08:19:18.639Z,4.20
2023-06-24T08:21:46.750Z,4.20
2023-06-24T08:24:14.899Z,4.40
2023-06-24T08:26:43.191Z,4.30
2023-06-24T08:29:11.414Z,4.90
2023-06-24T08:31:39.430Z,5.40
2023-06-24T08:36:38.555Z,5.00
2023-06-24T08:39:07.115Z,4.70
2023-06-24T08:41:35.450Z,5.10
2023-06-24T08:44:03.946Z,4.70
2023-06-24T08:46:34.278Z,4.30
2023-06-24T08:49:28.983Z,5.10
2023-06-24T08:52:00.419Z,5.20
2023-06-24T08:54:31.167Z,4.70
2023-06-24T08:57:01.477Z,4.50
2023-06-24T08:59:29.696Z,4.70
2023-06-24T09:01:57.963Z,4.70
2023-06-24T09:04:26.150Z,4.60
2023-06-24T09:06:55.255Z,4.40
2023-06-24T09:09:24.925Z,5.00
2023-06-24T09:11:55.718Z,5.00
2023-06-24T09:14:26.147Z,4.90
2023-06-24T09:17:07.554Z,4.80
2023-06-24T09:19:37.682Z,4.60
2023-06-24T09:22:08.884Z,4.30
2023-06-24T09:24:38.416Z,4.20
2023-06-24T09:27:06.519Z,4.20
2023-06-24T09:29:36.670Z,4.10
2023-06-24T09:32:08.696Z,4.90
2023-06-24T09:34:37.301Z,4.30
2023-06-24T09:37:05.818Z,4.30
2023-06-24T09:39:43.057Z,3.80
2023-06-24T09:42:13.090Z,3.60
2023-06-24T09:44:43.321Z,3.90
2023-06-24T09:47:11.736Z,3.80
2023-06-24T09:49:39.783Z,3.80
2023-06-24T09:52:08.594Z,3.50
2023-06-24T09:54:38.198Z,3.50
2023-06-24T09:57:09.067Z,3.50
2023-06-24T09:59:38.279Z,4.50
2023-06-24T10:02:12.502Z,3.20
2023-06-24T10:04:41.033Z,3.40
2023-06-24T10:07:09.586Z,3.70
2023-06-24T10:09:39.880Z,3.00
2023-06-24T10:12:08.707Z,3.00
2023-06-24T10:14:37.433Z,3.20
2023-06-24T10:17:06.238Z,3.10
2023-06-24T10:19:42.044Z,2.80
2023-06-24T10:22:11.983Z,3.70
2023-06-24T10:24:43.584Z,3.40
2023-06-24T10:27:17.756Z,3.00
2023-06-24T10:29:48.042Z,3.20
2023-06-24T10:32:16.961Z,3.00
2023-06-24T10:34:54.801Z,3.30
2023-06-24T10:37:28.166Z,3.20
2023-06-24T10:40:02.212Z,3.00
2023-06-24T10:42:30.597Z,3.10
2023-06-24T10:45:01.551Z,3.40
2023-06-24T10:47:31.436Z,2.90
2023-06-24T10:49:59.666Z,3.40
2023-06-24T10:52:28.226Z,3.00
2023-06-24T10:54:59.055Z,3.10
2023-06-24T10:57:28.743Z,2.80
2023-06-24T10:59:58.777Z,3.00
2023-06-24T11:02:29.224Z,3.40
2023-06-24T11:04:59.833Z,3.60
2023-06-24T11:07:35.835Z,3.60
2023-06-24T11:10:12.610Z,3.00
2023-06-24T11:12:42.763Z,3.00
2023-06-24T11:15:13.236Z,3.00
2023-06-24T11:17:42.963Z,3.50
2023-06-24T11:20:15.866Z,4.00
2023-06-24T11:22:45.382Z,3.10
2023-06-24T11:25:20.926Z,3.60
2023-06-24T11:27:52.233Z,3.50
2023-06-24T11:30:20.871Z,3.50
2023-06-24T11:32:49.698Z,3.30
2023-06-24T11:35:18.309Z,3.20
2023-06-24T11:37:50.839Z,3.50
2023-06-24T11:40:21.363Z,3.70
2023-06-24T11:42:52.168Z,3.80
2023-06-24T11:45:23.031Z,3.80
2023-06-24T11:47:51.816Z,3.40
2023-06-24T11:50:27.401Z,3.10
2023-06-24T11:52:56.020Z,3.40
2023-06-24T11:55:26.325Z,2.90
2023-06-24T11:58:07.217Z,3.30
2023-06-24T12:00:40.759Z,3.40
2023-06-24T12:03:12.050Z,3.30
2023-06-24T12:05:47.000Z,3.00
2023-06-24T12:08:17.018Z,3.20
2023-06-24T12:10:46.577Z,4.00
2023-06-24T12:13:15.007Z,3.30
2023-06-24T12:15:43.326Z,3.60
2023-06-24T12:18:13.357Z,3.40
2023-06-24T12:20:42.063Z,3.70
2023-06-24T12:23:10.597Z,3.70
2023-06-24T12:25:38.918Z,2.70
2023-06-24T12:28:07.042Z,3.60
2023-06-24T12:30:35.697Z,3.80
2023-06-24T12:33:05.137Z,3.60
2023-06-24T12:35:33.520Z,3.30
2023-06-24T12:38:01.639Z,3.60
2023-06-24T12:40:29.849Z,3.70
2023-06-24T12:42:59.085Z,3.60
2023-06-24T12:45:27.593Z,3.30
2023-06-24T12:47:55.944Z,3.20
2023-06-24T12:50:24.236Z,3.70
2023-06-24T12:52:52.756Z,3.40
2023-06-24T12:55:20.875Z,2.90
2023-06-24T12:57:49.195Z,3.10
2023-06-24T13:00:20.987Z,3.50
2023-06-24T13:02:50.418Z,3.30
2023-06-24T13:05:19.501Z,3.60
2023-06-24T13:07:47.704Z,3.50
2023-06-24T13:10:16.017Z,3.80
2023-06-24T13:12:44.242Z,3.90
2023-06-24T13:15:12.468Z,3.50
2023-06-24T13:17:40.718Z,4.00
2023-06-24T13:20:09.571Z,4.00
2023-06-24T13:22:37.821Z,3.40
2023-06-24T13:25:06.900Z,3.40
2023-06-24T13:27:36.180Z,3.40
2023-06-24T13:30:06.199Z,3.50
2023-06-24T13:32:34.433Z,3.50
2023-06-24T13:35:02.848Z,3.60
2023-06-24T13:37:31.561Z,4.00
2023-06-24T13:40:00.087Z,3.90
2023-06-24T13:42:28.402Z,3.60
2023-06-24T13:44:56.539Z,3.30
2023-06-24T13:47:24.874Z,4.10
2023-06-24T13:49:52.963Z,3.50
2023-06-24T13:52:22.304Z,4.80
2023-06-24T13:54:51.208Z,3.90
2023-06-24T13:57:19.835Z,3.50
2023-06-24T13:59:48.271Z,3.80
2023-06-24T14:02:16.513Z,3.90
2023-06-24T14:04:44.995Z,3.80
2023-06-24T14:07:13.378Z,3.80
2023-06-24T14:09:41.661Z,4.30
2023-06-24T14:12:10.364Z,3.70
2023-06-24T14:14:39.987Z,4.30
2023-06-24T14:17:13.131Z,4.20
2023-06-24T14:19:41.843Z,4.00
2023-06-24T14:22:10.374Z,3.80
2023-06-24T14:24:39.290Z,4.20
2023-06-24T14:27:08.212Z,4.70
2023-06-24T14:29:36.674Z,3.80
2023-06-24T14:32:05.303Z,4.00
2023-06-24T14:34:33.679Z,3.90
2023-06-24T14:37:01.797Z,4.00
2023-06-24T14:39:31.043Z,3.50
2023-06-24T14:41:59.336Z,3.00
2023-06-24T14:44:27.478Z,4.00
2023-06-24T14:46:55.577Z,3.80
2023-06-24T14:49:23.703Z,3.20
2023-06-24T14:51:53.425Z,3.60
2023-06-24T14:54:21.754Z,3.80
2023-06-24T14:56:50.072Z,3.50
2023-06-24T14:59:18.187Z,3.50
2023-06-24T15:01:46.373Z,3.70
2023-06-24T15:04:14.530Z,3.60
2023-06-24T15:06:42.997Z,3.30
2023-06-24T15:09:11.274Z,3.30
2023-06-24T15:11:39.486Z,3.30
2023-06-24T15:14:07.708Z,3.50
2023-06-24T15:16:35.831Z,3.10
2023-06-24T15:19:03.948Z,3.50
2023-06-24T15:21:37.096Z,3.40
2023-06-24T15:24:06.222Z,3.60
2023-06-24T15:26:34.532Z,3.90
2023-06-24T15:29:02.656Z,3.50
2023-06-24T15:31:31.029Z,3.80
2023-06-24T15:33:59.494Z,3.60
2023-06-24T15:36:29.120Z,3.50
2023-06-24T15:38:58.377Z,3.50
2023-06-24T15:41:26.694Z,3.60
2023-06-24T15:43:54.897Z,3.50
2023-06-24T15:46:24.384Z,3.60
2023-06-24T15:48:52.831Z,3.60
2023-06-24T15:51:21.038Z,3.00
2023-06-24T15:53:49.375Z,3.60
2023-06-24T15:56:17.706Z,3.50
2023-06-24T15:58:45.908Z,3.30
2023-06-24T16:01:14.677Z,3.80
2023-06-24T16:03:43.097Z,4.20
2023-06-24T16:06:11.376Z,3.10
2023-06-24T16:08:39.598Z,3.60
2023-06-24T16:11:08.527Z,3.60
2023-06-24T16:13:36.746Z,3.80
2023-06-24T16:16:05.268Z,4.20
2023-06-24T16:18:33.381Z,3.50
2023-06-24T16:23:31.629Z,3.50
2023-06-24T16:25:59.872Z,3.80
2023-06-24T16:28:28.170Z,3.80
2023-06-24T16:30:56.362Z,3.60
2023-06-24T16:33:24.608Z,3.80
2023-06-24T16:35:52.734Z,3.50
2023-06-24T16:40:49.175Z,3.80
2023-06-24T16:43:17.392Z,3.80
2023-06-24T16:45:47.786Z,3.10
2023-06-24T16:48:16.234Z,3.70
2023-06-24T16:50:44.574Z,3.80
2023-06-24T16:53:12.784Z,3.40
2023-06-24T16:55:41.102Z,3.20
2023-06-24T16:58:09.330Z,3.90
2023-06-24T17:00:37.897Z,3.70
2023-06-24T17:03:06.582Z,3.50
2023-06-24T17:05:39.533Z,3.50
2023-06-24T17:08:08.828Z,3.70
2023-06-24T17:10:37.305Z,3.50
2023-06-24T17:13:05.771Z,3.30
2023-06-24T17:15:33.899Z,3.20
2023-06-24T17:18:02.448Z,3.30
2023-06-24T17:20:30.835Z,3.90
2023-06-24T17:22:59.159Z,3.60
2023-06-24T17:25:27.400Z,3.50
2023-06-24T17:27:55.595Z,3.70
2023-06-24T17:30:23.674Z,3.80
2023-06-24T17:32:51.977Z,3.80
2023-06-24T17:35:23.224Z,3.40
2023-06-24T17:37:51.597Z,3.40
2023-06-24T17:40:19.802Z,3.70
2023-06-24T17:42:49.129Z,3.40
2023-06-24T17:45:18.969Z,3.10
2023-06-24T17:47:47.098Z,3.20
2023-06-24T17:52:43.420Z,3.70
2023-06-24T17:55:11.648Z,3.80
2023-06-24T18:00:08.475Z,3.80
2023-06-24T18:02:36.634Z,3.70
2023-06-24T18:05:05.443Z,3.70
2023-06-24T18:07:33.717Z,3.30
2023-06-24T18:10:01.968Z,3.20
2023-06-24T18:14:58.405Z,3.50
2023-06-24T18:17:26.741Z,3.70
2023-06-24T18:19:55.152Z,3.80
2023-06-24T18:22:23.364Z,3.30
2023-06-24T18:24:54.190Z,4.10
2023-06-24T18:27:24.775Z,3.40
2023-06-24T18:29:54.054Z,3.90
2023-06-24T18:32:25.077Z,4.10
2023-06-24T18:34:57.445Z,3.60
2023-06-24T18:37:25.627Z,4.20
2023-06-24T18:42:23.793Z,3.50
2023-06-24T18:44:51.903Z,3.70
2023-06-24T18:49:48.143Z,3.80
2023-06-24T18:54:47.395Z,3.90
2023-06-24T18:57:15.815Z,4.40
2023-06-24T18:59:44.851Z,4.50
2023-06-24T19:02:13.191Z,4.80
2023-06-24T19:04:43.288Z,4.50
2023-06-24T19:07:11.618Z,4.20
2023-06-24T19:09:40.029Z,4.60
2023-06-24T19:12:08.646Z,4.70
2023-06-24T19:14:37.164Z,4.30
2023-06-24T19:17:05.806Z,4.10
2023-06-24T19:19:34.218Z,4.20
2023-06-24T19:22:04.838Z,5.20
2023-06-24T19:24:37.372Z,4.40
2023-06-24T19:27:06.314Z,5.20
2023-06-24T19:29:34.418Z,13.10
2023-06-24T19:34:30.979Z,5.30
2023-06-24T19:36:59.075Z,5.40
2023-06-24T19:41:55.223Z,3.80
2023-06-24T19:44:23.342Z,3.60
2023-06-24T19:46:51.648Z,3.90
2023-06-24T19:49:19.877Z,3.60
2023-06-24T19:54:16.016Z,3.00
2023-06-24T19:56:44.152Z,3.90
2023-06-24T20:01:40.307Z,3.10
2023-06-24T20:04:08.596Z,3.80
2023-06-24T20:09:04.841Z,3.40
2023-06-24T20:11:32.954Z,4.20
2023-06-24T20:14:01.076Z,4.00
2023-06-24T20:18:57.231Z,3.80
2023-06-24T20:23:54.299Z,4.20
2023-06-24T20:26:22.485Z,3.80
2023-06-24T20:31:18.748Z,3.70
2023-06-24T20:33:47.051Z,3.60
2023-06-24T20:38:43.199Z,3.80
2023-06-24T20:43:49.573Z,3.90
2023-06-24T20:46:18.034Z,3.80
2023-06-24T20:48:46.701Z,3.70
2023-06-24T20:51:15.220Z,3.40
2023-06-24T20:53:43.507Z,3.20
2023-06-24T20:56:12.162Z,3.80
2023-06-24T20:58:41.588Z,3.50
2023-06-24T21:01:11.011Z,3.60
2023-06-24T21:03:40.969Z,3.60
2023-06-24T21:06:09.458Z,3.70
2023-06-24T21:08:37.582Z,3.40
2023-06-24T21:13:33.821Z,3.40
2023-06-24T21:18:30.360Z,3.30
2023-06-24T21:23:26.503Z,3.10
2023-06-24T21:28:22.944Z,3.20
2023-06-24T21:33:20.409Z,3.50
2023-06-24T21:35:59.887Z,3.70
2023-06-24T21:38:29.525Z,3.60
2023-06-24T21:40:57.674Z,3.70
2023-06-24T21:45:53.932Z,3.70
2023-06-24T21:48:22.059Z,4.40
2023-06-24T21:53:18.126Z,3.90
2023-06-24T21:55:46.423Z,4.00
2023-06-24T21:58:15.171Z,4.50
2023-06-24T22:00:44.291Z,3.90
2023-06-24T22:03:12.496Z,3.40
2023-06-24T22:05:40.851Z,3.50
2023-06-24T22:10:37.261Z,3.70
2023-06-24T22:13:05.863Z,3.10
2023-06-24T22:18:03.457Z,3.60
2023-06-24T22:20:32.431Z,3.90
2023-06-24T22:23:00.556Z,3.90
2023-06-24T22:27:59.703Z,3.90
2023-06-24T22:30:28.022Z,4.30
2023-06-24T22:32:56.169Z,4.50
2023-06-24T22:37:53.383Z,4.30
2023-06-24T22:40:21.508Z,4.10
2023-06-24T22:42:49.737Z,4.60
2023-06-24T22:45:17.846Z,4.50
2023-06-24T22:47:45.991Z,4.30
2023-06-24T22:50:14.207Z,4.10
2023-06-24T22:52:42.611Z,4.20
2023-06-24T22:55:10.934Z,4.40
2023-06-24T22:57:39.150Z,3.90
2023-06-24T23:02:36.264Z,4.10
2023-06-24T23:05:05.517Z,4.40
2023-06-24T23:07:34.333Z,4.30
2023-06-24T23:10:03.457Z,3.70
2023-06-24T23:12:32.181Z,4.10
2023-06-24T23:15:01.012Z,3.90
2023-06-24T23:17:29.439Z,3.90
2023-06-24T23:19:58.653Z,4.10
2023-06-24T23:22:27.276Z,4.50
2023-06-24T23:24:55.929Z,4.40
2023-06-24T23:27:31.759Z,4.10
2023-06-24T23:30:02.169Z,4.20
2023-06-24T23:32:33.865Z,4.70
2023-06-24T23:35:02.626Z,5.00
2023-06-24T23:37:31.553Z,4.60
2023-06-24T23:40:00.076Z,4.50
2023-06-24T23:42:30.477Z,4.70
2023-06-24T23:44:59.317Z,4.50
2023-06-24T23:47:27.536Z,4.60
2023-06-24T23:49:55.860Z,4.70
2023-06-24T23:54:52.397Z,5.30
2023-06-24T23:59:49.245Z,4.90
